Time;durP1;ratioP1;P1;durP2;ratioP2;P2;SDS_P1;SDS_P2;PMS_P1;PMS_P2;Temp;Humidity;BMP_temperature;BMP_pressure;BME280_temperature;BME280_humidity;BME280_pressure;Samples;Min_cycle;Max_cycle;Signal;HPM_P1;HPM_P2
2022/04/27 00:00:07;;;;;;;8.20;4.30;;;;;;;9.56;67.15;102254.25;5135038;27;20058;-52
2022/04/27 00:02:40;;;;;;;9.90;4.30;;;;;;;9.56;67.14;102257.78;5135930;27;20055;-50
2022/04/27 00:05:09;;;;;;;8.90;4.40;;;;;;;9.57;66.58;102253.16;5127378;27;20040;-48
2022/04/27 00:07:37;;;;;;;10.18;4.20;;;;;;;9.58;66.76;102252.94;5116337;28;20040;-49
2022/04/27 00:10:05;;;;;;;7.78;4.00;;;;;;;9.57;66.82;102259.47;5116563;28;20048;-48
2022/04/27 00:12:37;;;;;;;10.40;4.45;;;;;;;9.53;66.52;102263.69;5116073;28;20039;-52
2022/04/27 00:15:06;;;;;;;7.93;4.43;;;;;;;9.47;66.85;102245.53;5123874;27;20039;-51
2022/04/27 00:17:35;;;;;;;10.63;4.50;;;;;;;9.39;66.93;102251.28;5132047;27;20126;-50
2022/04/27 00:20:04;;;;;;;7.72;4.60;;;;;;;9.31;67.47;102255.13;5136896;27;20043;-50
2022/04/27 00:22:32;;;;;;;8.38;4.38;;;;;;;9.29;68.15;102250.97;5136446;27;20040;-51
2022/04/27 00:25:00;;;;;;;10.38;4.75;;;;;;;9.29;68.08;102246.34;5117632;27;20485;-51
2022/04/27 00:27:28;;;;;;;9.98;4.65;;;;;;;9.31;67.74;102241.53;5115604;28;20036;-48
2022/04/27 00:29:57;;;;;;;12.13;5.00;;;;;;;9.34;68.11;102249.22;5115097;28;20122;-49
2022/04/27 00:32:25;;;;;;;11.10;4.70;;;;;;;9.33;67.95;102247.56;5113845;28;20051;-50
2022/04/27 00:34:52;;;;;;;12.43;4.30;;;;;;;9.32;67.93;102251.34;5112781;28;20050;-47
2022/04/27 00:37:20;;;;;;;9.25;4.70;;;;;;;9.29;67.74;102251.78;5115667;28;20047;-53
2022/04/27 00:39:48;;;;;;;11.32;4.85;;;;;;;9.30;68.25;102250.72;5115174;28;20038;-49
2022/04/27 00:42:21;;;;;;;11.73;5.00;;;;;;;9.29;67.72;102249.06;5097899;28;20473;-52
2022/04/27 00:44:49;;;;;;;9.30;4.50;;;;;;;9.27;67.84;102250.34;5113465;28;20044;-48
2022/04/27 00:47:18;;;;;;;9.98;4.53;;;;;;;9.26;68.17;102257.69;5114593;28;20051;-50
2022/04/27 00:49:51;;;;;;;13.50;4.97;;;;;;;9.24;68.20;102256.25;5114380;28;20060;-51
2022/04/27 00:52:20;;;;;;;8.57;4.30;;;;;;;9.19;68.48;102254.19;5114101;28;20454;-51
2022/04/27 00:54:53;;;;;;;11.18;4.65;;;;;;;9.20;68.40;102255.84;5128034;27;20039;-51
2022/04/27 00:57:24;;;;;;;15.57;4.97;;;;;;;9.21;67.88;102253.97;5135645;27;20527;-50
2022/04/27 00:59:52;;;;;;;9.10;4.70;;;;;;;9.19;67.89;102251.47;5097661;28;20170;-50
2022/04/27 01:02:20;;;;;;;8.93;4.50;;;;;;;9.13;68.46;102249.63;5097063;28;20043;-49
2022/04/27 01:04:49;;;;;;;10.98;4.65;;;;;;;9.10;68.87;102258.25;5095811;28;20071;-52
2022/04/27 01:07:17;;;;;;;9.10;4.57;;;;;;;9.09;68.45;102264.72;5113494;27;20370;-52
2022/04/27 01:09:45;;;;;;;11.35;5.05;;;;;;;9.08;68.50;102265.78;5129316;27;20486;-48
2022/04/27 01:12:16;;;;;;;8.88;5.22;;;;;;;9.09;68.72;102262.00;5114146;28;20065;-48
2022/04/27 01:14:52;;;;;;;10.63;4.82;;;;;;;9.08;68.87;102271.22;5097549;28;20081;-51
2022/04/27 01:17:22;;;;;;;11.18;4.93;;;;;;;9.07;68.63;102267.69;5113534;28;20126;-50
2022/04/27 01:19:51;;;;;;;8.48;4.72;;;;;;;9.05;68.28;102277.13;5113145;28;20096;-49
2022/04/27 01:22:19;;;;;;;11.68;5.03;;;;;;;9.02;68.20;102272.97;5113782;28;20048;-50
2022/04/27 01:24:49;;;;;;;9.65;4.90;;;;;;;8.99;68.92;102281.53;5096851;28;20401;-49
2022/04/27 01:27:17;;;;;;;9.63;4.75;;;;;;;8.98;68.67;102287.22;5112516;28;20051;-51
2022/04/27 01:29:45;;;;;;;10.98;5.30;;;;;;;8.91;68.63;102279.94;5095554;28;20489;-52
2022/04/27 01:32:15;;;;;;;11.70;5.05;;;;;;;8.84;69.33;102284.59;5129559;27;20067;-52
2022/04/27 01:34:43;;;;;;;9.18;4.57;;;;;;;8.83;69.58;102285.66;5114858;28;20074;-51
2022/04/27 01:39:56;;;;;;;8.50;4.45;;;;;;;8.76;69.03;102293.03;5094702;28;20105;-50
2022/04/27 01:42:24;;;;;;;8.73;4.97;;;;;;;8.72;69.52;102289.91;5127495;27;20045;-54
2022/04/27 01:44:52;;;;;;;11.85;4.88;;;;;;;8.71;69.54;102285.53;5113390;28;20039;-50
2022/04/27 01:47:20;;;;;;;9.80;4.68;;;;;;;8.73;69.33;102286.13;5114331;28;20047;-54
2022/04/27 01:49:47;;;;;;;8.80;4.90;;;;;;;8.74;69.13;102281.53;5113183;28;20405;-54
2022/04/27 01:55:02;;;;;;;10.02;4.75;;;;;;;8.71;69.11;102287.41;5113486;28;20043;-54
2022/04/27 01:57:30;;;;;;;9.00;5.18;;;;;;;8.68;69.77;102287.81;5096590;28;20069;-53
2022/04/27 01:59:59;;;;;;;9.65;5.07;;;;;;;8.65;69.21;102289.09;5112681;28;20083;-52
2022/04/27 02:02:27;;;;;;;10.13;5.13;;;;;;;8.62;69.73;102296.88;5112800;27;20070;-54
2022/04/27 02:04:57;;;;;;;11.88;5.50;;;;;;;8.59;69.61;102294.59;5112801;28;20082;-54
2022/04/27 02:07:26;;;;;;;9.10;4.88;;;;;;;8.61;69.96;102292.47;5112905;28;20031;-53
2022/04/27 02:09:54;;;;;;;10.98;4.95;;;;;;;8.63;69.48;102288.47;5113436;28;20042;-50
2022/04/27 02:12:22;;;;;;;10.10;5.45;;;;;;;8.65;69.96;102296.44;5125443;27;20035;-51
2022/04/27 02:15:06;;;;;;;9.77;5.18;;;;;;;8.66;69.53;102308.94;5129227;27;20451;-52
2022/04/27 02:17:35;;;;;;;11.63;6.03;;;;;;;8.65;69.75;102304.56;5112440;28;20043;-55
2022/04/27 02:20:04;;;;;;;11.18;5.63;;;;;;;8.62;69.93;102310.47;5114286;27;20511;-51
2022/04/27 02:22:36;;;;;;;9.95;5.40;;;;;;;8.57;69.37;102310.28;5129503;27;20043;-56
2022/04/27 02:25:04;;;;;;;11.45;5.40;;;;;;;8.50;70.07;102319.28;5112838;28;20050;-51
2022/04/27 02:27:33;;;;;;;11.00;5.68;;;;;;;8.43;70.56;102307.63;5113708;28;20036;-54
2022/04/27 02:30:01;;;;;;;11.63;5.65;;;;;;;8.37;70.95;102313.91;5114033;28;20042;-54
2022/04/27 02:32:30;;;;;;;10.95;5.75;;;;;;;8.35;70.66;102316.00;5095136;28;20048;-52
2022/04/27 02:34:57;;;;;;;12.27;5.88;;;;;;;8.35;71.21;102318.72;5112395;28;20114;-52
2022/04/27 02:37:26;;;;;;;10.13;5.53;;;;;;;8.39;71.26;102317.22;5095694;28;20042;-54
2022/04/27 02:39:59;;;;;;;12.95;6.18;;;;;;;8.42;70.28;102319.56;5114308;28;20096;-52
2022/04/27 02:42:27;;;;;;;10.77;5.80;;;;;;;8.43;70.84;102323.09;5127656;28;20070;-54
2022/04/27 02:44:56;;;;;;;11.15;5.65;;;;;;;8.43;70.34;102320.38;5114010;28;20131;-53
2022/04/27 02:47:24;;;;;;;10.98;5.82;;;;;;;8.39;69.60;102321.81;5095228;28;20032;-54
2022/04/27 02:53:04;;;;;;;11.05;5.68;;;;;;;8.26;70.26;102318.13;5089932;28;20056;-54
2022/04/27 02:55:36;;;;;;;9.65;5.75;;;;;;;8.27;70.50;102324.38;5092892;28;20040;-50
2022/04/27 02:58:04;;;;;;;11.48;5.97;;;;;;;8.29;71.21;102327.72;5108033;28;20047;-53
2022/04/27 03:00:33;;;;;;;12.38;6.35;;;;;;;8.34;70.48;102322.47;5115200;28;20055;-53
2022/04/27 03:03:07;;;;;;;10.18;5.95;;;;;;;8.35;70.22;102326.03;5121341;27;20097;-51
2022/04/27 03:05:35;;;;;;;11.13;6.00;;;;;;;8.33;70.80;102320.81;5120269;27;20051;-53
2022/04/27 03:08:04;;;;;;;11.35;6.15;;;;;;;8.29;70.50;102325.81;5120950;27;20145;-54
2022/04/27 03:10:36;;;;;;;12.90;6.93;;;;;;;8.28;71.09;102326.06;5115784;28;20035;-51
2022/04/27 03:13:03;;;;;;;12.90;6.90;;;;;;;8.30;71.26;102323.97;5116124;28;20046;-52
2022/04/27 03:15:32;;;;;;;14.23;6.53;;;;;;;8.23;71.25;102331.31;5116517;28;20039;-50
2022/04/27 03:18:19;;;;;;;14.30;7.32;;;;;;;8.23;71.13;102325.88;5116140;28;20135;-54
2022/04/27 03:20:50;;;;;;;10.73;6.85;;;;;;;8.20;71.21;102324.44;5116634;28;20039;-51
2022/04/27 03:23:18;;;;;;;13.25;7.05;;;;;;;8.17;71.61;102326.72;5116362;28;20036;-53
2022/04/27 03:25:52;;;;;;;13.90;7.20;;;;;;;8.18;72.07;102322.94;5114895;28;20039;-53
2022/04/27 03:28:21;;;;;;;11.30;7.03;;;;;;;8.18;71.33;102325.66;5114891;28;20489;-51
2022/04/27 03:30:49;;;;;;;10.88;6.60;;;;;;;8.17;72.02;102334.88;5115434;28;20031;-52
2022/04/27 03:33:35;;;;;;;13.07;6.75;;;;;;;8.18;71.56;102331.09;5116351;28;20042;-52
2022/04/27 03:36:03;;;;;;;12.18;6.70;;;;;;;8.09;71.45;102334.06;5115850;28;20117;-51
2022/04/27 03:38:31;;;;;;;14.00;7.35;;;;;;;8.04;72.50;102331.16;5114879;28;20044;-48
2022/04/27 03:40:59;;;;;;;13.00;7.40;;;;;;;7.99;72.32;102333.69;5132071;27;20043;-47
2022/04/27 03:43:28;;;;;;;11.40;7.00;;;;;;;7.98;73.03;102337.44;5119563;27;20043;-52
2022/04/27 03:45:56;;;;;;;14.63;7.82;;;;;;;7.97;72.89;102337.66;5133747;27;20031;-54
2022/04/27 03:48:24;;;;;;;13.02;7.18;;;;;;;7.94;72.94;102335.34;5115792;28;20073;-51
2022/04/27 03:50:52;;;;;;;13.65;7.00;;;;;;;7.93;72.45;102339.94;5117306;27;20054;-51
2022/04/27 03:53:19;;;;;;;14.52;7.20;;;;;;;7.91;72.65;102342.03;5116938;28;20051;-54
2022/04/27 03:55:47;;;;;;;13.85;7.30;;;;;;;7.93;73.27;102356.22;5117364;27;20051;-49
2022/04/27 03:58:15;;;;;;;12.70;7.30;;;;;;;7.93;72.54;102356.22;5115246;28;20031;-51
2022/04/27 04:00:44;;;;;;;12.70;7.75;;;;;;;7.94;72.66;102355.22;5115095;28;20097;-51
2022/04/27 04:03:18;;;;;;;12.18;6.88;;;;;;;7.93;72.69;102356.22;5113102;28;20047;-53
2022/04/27 04:05:50;;;;;;;12.98;6.93;;;;;;;7.89;72.61;102350.41;5114240;28;20099;-52
2022/04/27 04:08:18;;;;;;;13.75;7.28;;;;;;;7.83;72.83;102359.38;5096392;28;20040;-53
2022/04/27 04:10:47;;;;;;;13.85;7.43;;;;;;;7.83;73.27;102358.56;5122529;27;20077;-52
2022/04/27 04:13:16;;;;;;;13.23;7.32;;;;;;;7.84;73.53;102368.34;5151694;27;20047;-49
2022/04/27 04:16:07;;;;;;;11.13;6.60;;;;;;;7.88;73.60;102359.59;5124076;27;20031;-53
2022/04/27 04:18:53;;;;;;;;;;;;;;;7.94;72.61;102366.06;5125242;27;20069;-50
2022/04/27 04:21:53;;;;;;;13.35;7.00;;;;;;;7.95;73.09;102369.59;5109589;28;19924;-54
2022/04/27 04:30:35;;;;;;;13.38;7.68;;;;;;;7.83;74.37;102377.56;5115067;28;20489;-50
2022/04/27 04:33:21;;;;;;;13.95;7.05;;;;;;;7.81;73.75;102374.22;5115842;28;20054;-52
2022/04/27 04:35:52;;;;;;;12.20;7.88;;;;;;;7.77;73.59;102383.81;5124446;27;20070;-51
2022/04/27 04:38:20;;;;;;;13.82;8.00;;;;;;;7.74;74.43;102384.25;5118483;27;20075;-51
2022/04/27 04:40:52;;;;;;;10.95;6.93;;;;;;;7.74;74.28;102395.09;5109152;27;20041;-52
2022/04/27 04:43:21;;;;;;;14.48;7.72;;;;;;;7.74;74.44;102392.38;5144678;27;20047;-55
2022/04/27 04:45:48;;;;;;;11.50;7.10;;;;;;;7.73;74.80;102396.16;5113795;28;20378;-52
2022/04/27 04:48:39;;;;;;;14.10;7.90;;;;;;;7.72;73.83;102400.75;5076772;28;20131;-53
2022/04/27 04:51:45;;;;;;;14.40;7.85;;;;;;;7.72;74.31;102402.59;5078512;28;20046;-55
2022/04/27 04:54:42;;;;;;;11.20;7.38;;;;;;;7.72;74.49;102402.59;5062968;28;20060;-53
2022/04/27 04:57:15;;;;;;;12.38;8.52;;;;;;;7.67;74.32;102404.09;5123668;27;20135;-55
2022/04/27 05:00:03;;;;;;;14.90;7.13;;;;;;;7.63;74.68;102415.56;5128400;27;20044;-56
2022/04/27 05:02:54;;;;;;;11.40;7.55;;;;;;;7.62;74.76;102413.88;5114761;28;20353;-56
2022/04/27 05:05:34;;;;;;;19.13;7.93;;;;;;;7.66;75.15;102418.69;5113233;28;20122;-54
2022/04/27 05:08:25;;;;;;;11.95;7.07;;;;;;;7.69;75.43;102412.81;5113684;27;20134;-54
2022/04/27 05:11:16;;;;;;;15.73;8.10;;;;;;;7.73;74.57;102420.56;5112374;27;20532;-54
2022/04/27 05:14:17;;;;;;;14.80;7.97;;;;;;;7.79;74.61;102417.84;5112974;28;20485;-52
2022/04/27 05:17:05;;;;;;;13.48;7.15;;;;;;;7.84;74.04;102423.50;5100462;28;20067;-54
2022/04/27 05:19:41;;;;;;;15.57;7.82;;;;;;;7.80;73.94;102421.41;5114564;28;20401;-53
2022/04/27 05:22:38;;;;;;;12.80;7.70;;;;;;;7.75;75.01;102424.75;5098353;27;20040;-54
2022/04/27 05:25:33;;;;;;;16.38;8.30;;;;;;;7.75;75.34;102426.63;5106707;27;20512;-52
2022/04/27 05:31:54;;;;;;;11.55;7.95;;;;;;;7.76;74.59;102426.41;5134003;27;20103;-56
2022/04/27 05:32:00;;;;;;;14.50;8.45;;;;;;;7.77;74.47;102441.66;5116169;27;20055;-55
2022/04/27 05:34:40;;;;;;;10.77;7.70;;;;;;;7.74;75.41;102443.94;5119446;27;20508;-51
2022/04/27 05:37:24;;;;;;;14.10;8.35;;;;;;;7.71;75.40;102449.78;5111513;28;20039;-52
2022/04/27 05:40:10;;;;;;;13.30;7.68;;;;;;;7.69;76.27;102455.41;5118345;27;20071;-50
2022/04/27 05:42:53;;;;;;;15.20;8.10;;;;;;;7.64;76.08;102444.34;4768605;27;10000201;-54
2022/04/27 05:45:20;;;;;;;14.30;7.78;;;;;;;7.62;76.73;102449.97;5121213;27;20577;-49
2022/04/27 05:48:04;;;;;;;18.00;8.20;;;;;;;7.64;76.32;102455.19;5111109;28;20040;-55
2022/04/27 05:50:54;;;;;;;13.65;8.60;;;;;;;7.66;76.44;102453.94;5102992;28;20123;-53
2022/04/27 05:53:48;;;;;;;16.02;7.90;;;;;;;7.72;76.75;102456.88;5098336;28;20417;-53
2022/04/27 05:56:34;;;;;;;11.68;7.47;;;;;;;7.78;76.51;102461.47;5114253;27;20039;-54
2022/04/27 05:59:09;;;;;;;14.70;7.47;;;;;;;7.82;76.75;102465.44;5119570;27;20066;-53
2022/04/27 06:02:07;;;;;;;14.20;7.72;;;;;;;7.85;76.18;102462.31;5112048;27;20073;-51
2022/04/27 06:04:35;;;;;;;14.18;7.65;;;;;;;7.89;76.03;102469.00;5114525;27;20090;-52
2022/04/27 06:07:08;;;;;;;13.90;7.00;;;;;;;7.89;76.80;102469.00;5111921;27;20096;-54
2022/04/27 06:09:37;;;;;;;11.88;6.95;;;;;;;7.91;76.93;102466.88;5121335;27;20047;-54
2022/04/27 06:12:10;;;;;;;12.05;7.35;;;;;;;7.94;76.37;102473.75;5081946;28;20055;-52
2022/04/27 06:14:43;;;;;;;12.40;7.60;;;;;;;7.93;76.92;102475.66;5112169;28;20489;-55
2022/04/27 06:17:37;;;;;;;15.35;7.47;;;;;;;7.94;76.36;102480.06;5116470;27;20527;-52
2022/04/27 06:20:05;;;;;;;15.90;7.70;;;;;;;7.90;77.16;102476.06;5129570;27;20071;-55
2022/04/27 06:22:33;;;;;;;14.52;6.93;;;;;;;7.90;76.57;102482.34;5119878;27;20032;-54
2022/04/27 06:25:04;;;;;;;10.82;6.60;;;;;;;7.97;76.87;102482.34;5109654;28;20405;-55
2022/04/27 06:27:40;;;;;;;15.20;6.88;;;;;;;7.96;76.88;102483.41;5107759;28;20130;-48
2022/04/27 06:30:09;;;;;;;13.18;7.32;;;;;;;7.99;77.30;102485.69;5114692;28;20043;-49
2022/04/27 06:32:39;;;;;;;13.60;7.00;;;;;;;7.98;77.37;102494.84;5120595;27;20523;-48
2022/04/27 06:35:13;;;;;;;12.68;7.00;;;;;;;8.00;77.27;102487.34;5108530;27;20044;-50
2022/04/27 06:37:43;;;;;;;14.02;7.45;;;;;;;8.03;76.86;102491.50;5116997;27;20035;-54
2022/04/27 06:40:11;;;;;;;11.15;6.20;;;;;;;8.01;76.74;102499.03;5111759;28;20096;-50
2022/04/27 06:42:43;;;;;;;14.55;7.05;;;;;;;8.07;77.16;102499.03;5093272;28;20377;-48
2022/04/27 06:45:37;;;;;;;12.02;6.53;;;;;;;8.16;77.28;102504.25;5078962;28;20112;-48
2022/04/27 06:48:23;;;;;;;14.50;6.38;;;;;;;8.19;77.11;102504.66;5124642;28;20027;-48
2022/04/27 06:51:09;;;;;;;;;;;;;;;8.26;76.96;102508.22;5113228;28;20036;-48
2022/04/27 06:53:56;;;;;;;11.25;5.97;;;;;;;8.26;76.77;102508.22;5112780;28;19920;-48
2022/04/27 06:56:42;;;;;;;15.43;6.68;;;;;;;8.31;76.91;102510.28;5108728;28;20032;-53
2022/04/27 06:59:41;;;;;;;10.73;6.15;;;;;;;8.32;76.42;102506.50;5100184;28;20039;-46
2022/04/27 07:02:12;;;;;;;15.30;6.50;;;;;;;8.40;75.91;102509.06;5114584;28;20511;-52
2022/04/27 07:04:43;;;;;;;11.18;5.88;;;;;;;8.47;75.19;102507.16;5122837;28;20039;-49
2022/04/27 07:07:11;;;;;;;12.05;5.95;;;;;;;8.55;75.01;102510.69;5111375;28;20493;-50
2022/04/27 07:09:39;;;;;;;13.57;5.60;;;;;;;8.62;74.33;102511.53;5113685;28;20072;-52
2022/04/27 07:12:07;;;;;;;10.80;5.78;;;;;;;8.65;74.29;102508.38;5118664;28;20036;-54
2022/04/27 07:14:34;;;;;;;13.45;6.35;;;;;;;8.66;74.15;102518.16;5112484;28;20051;-52
2022/04/27 07:17:02;;;;;;;14.63;6.40;;;;;;;8.67;74.21;102511.72;5113330;28;20397;-49
2022/04/27 07:19:30;;;;;;;13.25;5.97;;;;;;;8.69;73.58;102515.06;5113310;28;20065;-49
2022/04/27 07:21:58;;;;;;;16.30;5.60;;;;;;;8.72;74.07;102518.16;5112746;28;20036;-48
2022/04/27 07:24:25;;;;;;;10.98;5.45;;;;;;;8.72;72.33;102522.75;5113357;28;20044;-48
2022/04/27 07:26:53;;;;;;;13.55;5.88;;;;;;;8.77;71.41;102525.66;5112494;28;20405;-49
2022/04/27 07:29:21;;;;;;;13.35;6.20;;;;;;;8.78;71.00;102526.50;5121560;28;20047;-49
2022/04/27 07:31:49;;;;;;;12.38;5.72;;;;;;;8.81;70.94;102531.53;5112730;28;20050;-49
2022/04/27 07:34:17;;;;;;;11.52;5.57;;;;;;;8.83;69.53;102530.28;5114393;28;20132;-50
2022/04/27 07:36:45;;;;;;;12.73;5.07;;;;;;;8.87;70.12;102533.38;5124327;28;20127;-49
2022/04/27 07:39:13;;;;;;;13.45;4.97;;;;;;;8.90;67.41;102536.53;5116882;28;20055;-49
2022/04/27 07:41:40;;;;;;;12.20;4.70;;;;;;;8.95;65.64;102542.13;5114104;28;20059;-48
2022/04/27 07:44:08;;;;;;;11.13;4.85;;;;;;;9.01;65.87;102536.88;5115399;28;20057;-49
2022/04/27 07:46:35;;;;;;;11.68;4.22;;;;;;;9.07;65.45;102541.47;5117033;28;20051;-48
2022/04/27 07:49:03;;;;;;;13.43;4.88;;;;;;;9.11;65.54;102531.81;5116867;28;20040;-49
2022/04/27 07:51:31;;;;;;;11.95;4.53;;;;;;;9.12;64.72;102539.78;5115405;28;20046;-49
2022/04/27 07:53:58;;;;;;;11.25;4.60;;;;;;;9.13;64.27;102540.59;5116431;28;20042;-49
2022/04/27 07:56:26;;;;;;;10.02;4.38;;;;;;;9.15;63.42;102535.78;5115435;28;20047;-47
2022/04/27 07:58:54;;;;;;;10.75;4.72;;;;;;;9.18;63.90;102543.50;5116577;28;20135;-51
2022/04/27 08:01:21;;;;;;;12.90;4.57;;;;;;;9.21;63.55;102550.38;5116790;28;20131;-51
2022/04/27 08:03:49;;;;;;;9.23;4.13;;;;;;;9.22;62.24;102539.31;5115839;28;20040;-52
2022/04/27 08:06:18;;;;;;;12.43;4.15;;;;;;;9.24;61.85;102542.66;5116303;28;20082;-49
2022/04/27 08:08:45;;;;;;;10.05;4.93;;;;;;;9.28;61.38;102549.31;5116492;28;20052;-50
2022/04/27 08:11:13;;;;;;;8.65;3.35;;;;;;;9.28;58.47;102554.75;5116620;28;20044;-48
2022/04/27 08:13:41;;;;;;;8.15;3.78;;;;;;;9.31;58.96;102548.88;5114893;28;20039;-52
2022/04/27 08:16:10;;;;;;;7.13;3.97;;;;;;;9.33;59.30;102552.22;5115920;28;20105;-53
2022/04/27 08:18:38;;;;;;;9.45;4.10;;;;;;;9.38;59.84;102555.13;5115186;28;20048;-54
2022/04/27 08:21:15;;;;;;;9.18;4.03;;;;;;;9.45;61.00;102555.06;5097589;28;20035;-51
2022/04/27 08:23:48;;;;;;;12.35;4.40;;;;;;;9.56;59.51;102559.00;5099448;28;20088;-49
2022/04/27 08:26:16;;;;;;;10.02;3.60;;;;;;;9.62;59.57;102554.56;5115919;28;20048;-50
2022/04/27 08:28:45;;;;;;;11.07;4.20;;;;;;;9.65;60.49;102562.31;5113814;28;20035;-51
2022/04/27 08:31:14;;;;;;;9.63;3.65;;;;;;;9.65;59.27;102570.47;5114781;28;20057;-53
2022/04/27 08:33:42;;;;;;;10.45;4.05;;;;;;;9.68;59.26;102565.41;5112198;27;20039;-51
2022/04/27 08:36:10;;;;;;;8.63;3.65;;;;;;;9.73;58.84;102571.03;4417972;27;10000619;-48
2022/04/27 08:38:58;;;;;;;9.13;4.00;;;;;;;9.77;58.80;102569.56;5124597;27;20036;-50
2022/04/27 08:41:28;;;;;;;15.43;5.82;;;;;;;9.83;59.88;102562.38;5111834;27;21287;-49
2022/04/27 08:43:56;;;;;;;7.90;3.50;;;;;;;9.80;57.70;102568.28;5126252;27;20484;-50
2022/04/27 08:46:24;;;;;;;9.10;4.35;;;;;;;9.85;57.79;102564.91;5123998;27;20041;-52
2022/04/27 08:48:52;;;;;;;9.00;4.18;;;;;;;9.86;57.28;102569.28;5112226;28;20183;-47
2022/04/27 08:51:19;;;;;;;8.73;3.97;;;;;;;9.86;57.78;102569.28;5112276;28;20477;-47
2022/04/27 08:53:47;;;;;;;11.15;4.25;;;;;;;9.84;57.79;102579.53;5082030;28;20375;-45
2022/04/27 08:56:16;;;;;;;8.68;3.92;;;;;;;9.81;57.54;102580.81;5107459;27;20056;-44
2022/04/27 08:58:44;;;;;;;13.60;5.18;;;;;;;9.81;58.03;102573.50;5129924;27;20397;-44
2022/04/27 09:01:12;;;;;;;11.38;4.25;;;;;;;9.85;58.41;102571.16;5109145;28;20055;-44
2022/04/27 09:03:42;;;;;;;10.90;4.28;;;;;;;9.86;58.00;102577.44;5127687;27;20135;-48
2022/04/27 09:06:12;;;;;;;11.20;4.60;;;;;;;9.91;58.35;102575.75;5110073;28;20130;-52
2022/04/27 09:08:44;;;;;;;14.73;5.32;;;;;;;10.03;59.46;102575.88;5093317;28;20066;-51
2022/04/27 09:11:22;;;;;;;21.73;7.13;;;;;;;10.17;61.01;102577.44;5111296;28;20035;-50
2022/04/27 09:14:01;;;;;;;17.73;6.45;;;;;;;10.30;63.31;102573.78;5119252;27;20039;-50
2022/04/27 09:22:11;;;;;;;12.10;4.95;;;;;;;10.34;57.41;102569.56;5102124;28;20463;-51
2022/04/27 09:24:53;;;;;;;9.35;3.78;;;;;;;10.38;57.71;102569.94;5110413;28;20108;-51
2022/04/27 09:27:23;;;;;;;12.02;4.22;;;;;;;10.38;56.32;102575.38;5107740;28;20055;-53
2022/04/27 09:30:02;;;;;;;10.07;4.38;;;;;;;10.35;55.65;102563.06;5092611;28;20067;-50
2022/04/27 09:32:31;;;;;;;12.63;4.60;;;;;;;10.39;55.64;102564.28;5111630;28;20697;-51
2022/04/27 09:35:00;;;;;;;11.38;4.78;;;;;;;10.43;55.62;102570.09;5111423;28;20051;-50
2022/04/27 09:37:30;;;;;;;9.52;4.93;;;;;;;10.45;55.13;102570.72;5111411;28;20036;-51
2022/04/27 09:40:03;;;;;;;11.52;4.85;;;;;;;10.43;54.89;102573.66;5125300;27;20387;-54
2022/04/27 09:42:32;;;;;;;12.43;5.10;;;;;;;10.43;54.61;102572.81;5119193;27;20115;-52
2022/04/27 09:45:20;;;;;;;12.75;5.03;;;;;;;10.39;54.97;102577.91;5132031;27;20044;-52
2022/04/27 09:48:03;;;;;;;11.18;4.97;;;;;;;10.38;54.79;102569.94;5103761;28;20047;-52
2022/04/27 09:50:55;;;;;;;11.73;4.88;;;;;;;10.39;55.10;102577.91;5109118;28;20046;-54
2022/04/27 09:53:22;;;;;;;10.88;4.65;;;;;;;10.49;54.86;102576.56;5110805;28;20100;-47
2022/04/27 09:55:59;;;;;;;12.13;5.05;;;;;;;10.64;56.03;102577.03;5110153;28;20096;-52
2022/04/27 09:58:29;;;;;;;11.88;4.65;;;;;;;10.71;54.20;102574.25;5106212;28;20046;-46
2022/04/27 10:00:57;;;;;;;11.48;5.03;;;;;;;10.73;53.22;102574.84;5108389;28;20529;-50
2022/04/27 10:03:26;;;;;;;11.68;4.75;;;;;;;10.76;54.97;102577.13;5117805;27;20035;-48
2022/04/27 10:05:54;;;;;;;9.90;4.55;;;;;;;10.79;53.26;102572.03;5128286;27;20046;-51
2022/04/27 10:08:23;;;;;;;11.30;4.82;;;;;;;10.82;53.76;102573.47;5118027;27;20078;-48
2022/04/27 10:10:51;;;;;;;13.80;5.75;;;;;;;10.93;55.69;102575.47;5099746;27;20091;-51
2022/04/27 10:13:25;;;;;;;14.68;5.97;;;;;;;11.00;56.76;102573.50;5118639;27;20074;-50
2022/04/27 10:15:53;;;;;;;7.15;4.25;;;;;;;11.02;54.65;102571.38;5105480;27;20108;-49
2022/04/27 10:18:21;;;;;;;8.50;4.50;;;;;;;11.06;54.06;102569.00;5129306;27;20049;-49
2022/04/27 10:20:51;;;;;;;11.52;4.88;;;;;;;11.11;52.98;102565.59;5121772;27;20505;-50
2022/04/27 10:23:33;;;;;;;11.10;4.70;;;;;;;11.14;53.35;102556.97;5130105;27;20146;-52
2022/04/27 10:26:13;;;;;;;10.88;4.90;;;;;;;11.22;53.77;102559.38;5110858;27;20035;-49
2022/04/27 10:28:56;;;;;;;11.90;5.32;;;;;;;11.35;53.01;102555.63;5128278;27;20047;-49
2022/04/27 10:31:48;;;;;;;9.18;4.95;;;;;;;11.46;53.37;102557.59;5119018;27;20035;-48
2022/04/27 10:34:24;;;;;;;11.38;5.68;;;;;;;11.34;52.05;102565.72;5095621;28;20040;-49
2022/04/27 10:36:53;;;;;;;8.70;4.90;;;;;;;11.31;52.54;102558.00;5124444;27;20043;-51
2022/04/27 10:39:27;;;;;;;9.95;4.65;;;;;;;11.25;52.67;102558.91;5125541;27;20039;-51
2022/04/27 10:42:04;;;;;;;9.98;5.28;;;;;;;11.18;52.49;102564.44;5110372;27;20070;-50
2022/04/27 10:44:50;;;;;;;10.75;5.43;;;;;;;11.13;52.69;102564.31;5109609;28;20044;-51
2022/04/27 10:47:19;;;;;;;8.10;4.45;;;;;;;11.12;52.78;102559.09;5108166;28;20039;-47
2022/04/27 10:49:48;;;;;;;11.35;5.28;;;;;;;11.11;52.34;102562.88;5120805;27;20042;-48
2022/04/27 10:52:16;;;;;;;15.10;5.80;;;;;;;11.08;52.63;102564.97;5120716;28;20054;-48
2022/04/27 10:54:43;;;;;;;10.80;5.22;;;;;;;11.06;52.06;102561.69;5110094;28;20567;-47
2022/04/27 10:57:18;;;;;;;18.05;5.80;;;;;;;11.07;52.80;102557.88;5108176;28;20050;-50
2022/04/27 11:00:01;;;;;;;9.88;5.75;;;;;;;11.08;52.60;102551.34;5109627;28;20146;-46
2022/04/27 11:02:37;;;;;;;13.32;5.60;;;;;;;11.11;52.35;102554.69;5108133;28;20035;-48
2022/04/27 11:05:11;;;;;;;11.65;5.13;;;;;;;11.11;52.55;102557.41;5110042;28;20428;-48
2022/04/27 11:08:03;;;;;;;10.25;5.45;;;;;;;11.10;52.84;102556.59;5110171;28;20050;-49
2022/04/27 11:10:30;;;;;;;11.55;5.55;;;;;;;11.09;53.38;102554.94;5109895;28;20520;-51
2022/04/27 11:12:58;;;;;;;10.70;5.10;;;;;;;11.17;52.89;102557.34;5108214;28;20047;-51
2022/04/27 11:15:27;;;;;;;11.27;5.50;;;;;;;11.32;52.24;102558.81;5108962;28;20149;-49
2022/04/27 11:18:02;;;;;;;10.82;6.03;;;;;;;11.36;52.45;102555.41;5094938;28;20109;-51
2022/04/27 11:20:35;;;;;;;14.02;5.95;;;;;;;11.38;52.61;102552.47;5112722;28;20066;-51
2022/04/27 11:23:07;;;;;;;10.57;5.55;;;;;;;11.36;51.32;102554.59;5094505;28;20043;-51
2022/04/27 11:25:40;;;;;;;12.65;5.97;;;;;;;11.40;52.05;102559.34;5109868;28;20051;-51
2022/04/27 11:28:09;;;;;;;12.05;5.57;;;;;;;11.49;51.20;102559.84;5112212;28;20047;-49
2022/04/27 11:30:36;;;;;;;13.13;6.40;;;;;;;11.54;51.73;102551.78;5111726;28;20154;-51
2022/04/27 11:33:04;;;;;;;12.57;6.45;;;;;;;11.56;51.17;102552.41;5111304;28;20104;-49
2022/04/27 11:35:47;;;;;;;12.68;6.35;;;;;;;11.64;50.88;102551.22;5113499;28;20521;-52
2022/04/27 11:38:22;;;;;;;11.48;5.78;;;;;;;11.75;52.00;102550.44;5113367;28;20735;-47
2022/04/27 11:40:53;;;;;;;12.88;6.55;;;;;;;11.85;51.55;102541.69;5112545;28;20043;-47
2022/04/27 11:43:32;;;;;;;12.52;6.50;;;;;;;12.00;51.14;102550.31;5112497;28;20044;-49
2022/04/27 11:46:00;;;;;;;10.35;5.90;;;;;;;11.96;49.99;102553.75;5113212;28;20042;-49
2022/04/27 11:48:31;;;;;;;9.48;5.15;;;;;;;11.84;50.93;102546.31;5095396;28;20036;-48
2022/04/27 11:51:00;;;;;;;7.95;5.18;;;;;;;11.80;51.58;102552.47;5113337;28;20050;-49
2022/04/27 11:53:28;;;;;;;11.73;6.07;;;;;;;11.77;51.24;102548.31;5131344;27;20393;-49
2022/04/27 11:55:58;;;;;;;13.02;5.95;;;;;;;11.79;51.73;102562.56;5096754;28;20043;-49
2022/04/27 11:58:28;;;;;;;12.82;6.20;;;;;;;11.80;50.70;102556.03;5113256;28;20467;-49
2022/04/27 12:00:58;;;;;;;12.13;6.07;;;;;;;11.85;50.99;102553.44;5113466;28;20469;-45
2022/04/27 12:03:27;;;;;;;14.77;6.22;;;;;;;11.94;51.88;102552.06;5107905;28;20123;-49
2022/04/27 12:05:56;;;;;;;12.05;6.70;;;;;;;12.09;51.49;102554.34;5095309;28;20076;-47
2022/04/27 12:08:27;;;;;;;9.68;5.75;;;;;;;12.16;50.93;102554.22;5111753;28;20065;-48
2022/04/27 12:10:55;;;;;;;10.65;5.50;;;;;;;12.23;50.73;102549.47;5112126;28;20477;-48